Flight Track Log - Related Links

Times and Time Zones

All times are in EDT time to prevent confusion due to time zone crossing. See the AWE1940 flight status page for this flight to view local times or setup timezone preferences in your user account.

Time Position Orientation Groundspeed Altitude Reporting Facility
EDT Latitude Longitude Course Direction KTS MPH feet Rate Location/Type
Thu 06:52:00 PM 29.9756 -95.2889 100° East 168 193 1,300  Level Houston Center
Thu 06:53:06 PM 29.9661 -95.2244 100° East 210 242 3,100 1,306 Climbing Houston Center
Thu 06:54:04 PM 29.9636 -95.1358 92° East 294 338 4,000 1,344 Climbing Houston Center
Thu 06:55:11 PM 29.9675 -95.0447 87° East 288 331 5,900 2,140 Climbing Houston Center
Thu 06:56:13 PM 29.9719 -94.9444 87° East 310 357 8,600 2,565 Climbing Houston Center
Thu 06:57:15 PM 29.9772 -94.8203 87° East 322 371 11,200 2,226 Climbing Houston Center
Thu 06:58:17 PM 29.9819 -94.6997 87° East 369 425 13,200 2,226 Climbing Houston Center
Thu 06:59:19 PM 29.9869 -94.5739 87° East 389 448 15,800 2,129 Climbing Houston Center
Thu 07:00:21 PM 29.9908 -94.4561 88° East 397 457 17,600 1,935 Climbing Houston Center
Thu 07:01:23 PM 29.9967 -94.2950 88° East 421 484 19,800 2,032 Climbing Houston Center
Thu 07:02:25 PM 30.0150 -94.1586 81° East 431 496 21,800 1,645 Climbing Houston Center
Thu 07:03:27 PM 30.0328 -94.0189 82° East 440 506 23,200 1,440 Climbing Houston Center
Thu 07:04:30 PM 30.0497 -93.8744 82° East 457 526 24,800 1,488 Climbing Houston Center
Thu 07:05:32 PM 30.0692 -93.7275 81° East 466 536 26,300 1,355 Climbing Houston Center
Thu 07:06:34 PM 30.0911 -93.5475 82° East 481 554 27,600 1,161 Climbing Houston Center
Thu 07:07:36 PM 30.1081 -93.3931 83° East 494 568 28,700 1,113 Climbing Houston Center
Thu 07:08:38 PM 30.1258 -93.2350 83° East 504 580 29,900 1,113 Climbing Houston Center
Thu 07:09:40 PM 30.1458 -93.0786 82° East 500 575 31,000 532 Climbing Houston Center
Thu 07:10:42 PM 30.1822 -92.8933 77° East 499 574 31,000 48 Level Houston Center
Thu 07:11:44 PM 30.2125 -92.7394 77° East 496 571 31,100 677 Climbing Houston Center
Thu 07:12:46 PM 30.2425 -92.5850 77° East 496 571 32,400 871 Climbing Houston Center
Thu 07:13:48 PM 30.2722 -92.4308 77° East 494 568 32,900 288 Climbing Houston Center
Thu 07:14:51 PM 30.3033 -92.2692 77° East 498 573 33,000 48 Climbing Houston Center
Thu 07:15:53 PM 30.3328 -92.1153 77° East 496 571 33,000  Level Houston Center
Thu 07:16:55 PM 30.3683 -91.9300 77° East 495 570 33,000  Level Houston Center
Thu 07:17:57 PM 30.3972 -91.7753 78° East 494 568 33,000  Level Houston Center
Thu 07:18:59 PM 30.4242 -91.6256 78° East 495 570 33,000  Level Houston Center
Thu 07:20:01 PM 30.4553 -91.4694 77° East 497 572 33,000  Level Houston Center
Thu 07:21:03 PM 30.4828 -91.3142 78° East 495 570 33,000  Level Houston Center
Thu 07:22:05 PM 30.5242 -91.1275 76° East 498 573 33,000  Level Houston Center
Thu 07:23:07 PM 30.5606 -90.9719 75° East 500 575 33,000  Level Houston Center
Thu 07:24:09 PM 30.5947 -90.8153 76° East 500 575 33,000  Level Houston Center
Thu 07:25:12 PM 30.6297 -90.6578 75° East 502 578 33,000  Level Houston Center
Thu 07:26:14 PM 30.6658 -90.5011 75° East 502 578 33,000  Level Houston Center
Thu 07:27:16 PM 30.7008 -90.3428 76° East 505 581 33,000  Level Houston Center
Thu 07:28:18 PM 30.7417 -90.1536 76° East 502 578 33,000  Level Houston Center
Thu 07:29:20 PM 30.7775 -89.9969 75° East 498 573 33,000  Level Houston Center
Thu 07:30:22 PM 30.8117 -89.8397 76° East 497 572 33,000  Level Houston Center
Thu 07:31:24 PM 30.8461 -89.6833 76° East 497 572 33,000  Level Houston Center
Thu 07:32:26 PM 30.8783 -89.5278 76° East 494 568 33,000 -48 Level Houston Center
Thu 07:33:28 PM 30.9119 -89.3719 76° East 494 568 32,900 -48 Descending Houston Center
Thu 07:34:30 PM 30.9458 -89.2164 76° East 494 568 32,900 48 Level Houston Center
Thu 07:35:32 PM 30.9767 -89.0600 77° East 496 571 33,000 48 Climbing Houston Center
Thu 07:36:34 PM 31.0158 -88.8722 76° East 492 566 33,000  Level Houston Center
Thu 07:37:36 PM 31.0483 -88.7175 76° East 491 565 33,000  Level Houston Center
Thu 07:38:38 PM 31.0808 -88.5647 76° East 493 567 33,000  Level Houston Center
Thu 07:39:41 PM 31.1317 -88.4172 68° East 493 567 33,000  Level Houston Center
Thu 07:40:43 PM 31.2036 -88.2825 58° Northeast 491 565 33,000  Level Houston Center
Thu 07:41:08 PM 31.2417 -88.2231 53° Northeast 489 563 33,000  Level Atlanta Center
Thu 07:42:08 PM 31.3108 -88.0878 59° Northeast 501 577 33,000  Level Atlanta Center
Thu 07:42:47 PM 31.3544 -88.0039 59° Northeast 488 562 33,000  Level Houston Center
Thu 07:43:08 PM 31.3842 -87.9525 56° Northeast 496 571 33,000  Level Atlanta Center
Thu 07:44:08 PM 31.4553 -87.8167 58° Northeast 486 559 33,000  Level Atlanta Center
Thu 07:45:08 PM 31.5258 -87.6833 58° Northeast 486 559 33,000  Level Atlanta Center
Thu 07:46:08 PM 31.5967 -87.5497 58° Northeast 481 554 33,000  Level Atlanta Center
Thu 07:47:08 PM 31.6628 -87.4181 59° Northeast 481 554 33,000  Level Atlanta Center
Thu 07:48:08 PM 31.7269 -87.2861 60° Northeast 470 541 33,000  Level Atlanta Center
Thu 07:49:08 PM 31.7969 -87.1567 58° Northeast 464 534 33,000  Level Atlanta Center
Thu 07:50:08 PM 31.8650 -87.0269 58° Northeast 457 526 33,000  Level Atlanta Center
Thu 07:51:08 PM 31.9306 -86.8947 60° Northeast 457 526 33,000  Level Atlanta Center
Thu 07:52:08 PM 31.9983 -86.7622 59° Northeast 457 526 33,000  Level Atlanta Center
Thu 07:53:08 PM 32.0767 -86.6197 57° Northeast 463 533 33,000  Level Atlanta Center
Thu 07:54:08 PM 32.1439 -86.4869 59° Northeast 468 539 33,000  Level Atlanta Center
Thu 07:55:08 PM 32.1964 -86.3681 62° Northeast 468 539 33,000  Level Atlanta Center
Thu 07:56:08 PM 32.2639 -86.2175 62° Northeast 461 531 33,000  Level Atlanta Center
Thu 07:57:08 PM 32.3308 -86.0864 59° Northeast 456 525 33,000  Level Atlanta Center
Thu 07:58:08 PM 32.4017 -85.9578 57° Northeast 461 531 33,000  Level Atlanta Center
Thu 07:59:08 PM 32.4661 -85.8336 58° Northeast 461 531 33,000  Level Atlanta Center
Thu 08:00:08 PM 32.5369 -85.7044 57° Northeast 461 531 33,000  Level Atlanta Center
Thu 08:01:08 PM 32.6053 -85.5800 57° Northeast 456 525 33,000  Level Atlanta Center
Thu 08:02:08 PM 32.6717 -85.4528 58° Northeast 449 517 33,000  Level Atlanta Center
Thu 08:03:08 PM 32.7375 -85.3303 57° Northeast 449 517 33,000  Level Atlanta Center
Thu 08:04:08 PM 32.8306 -85.2303 42° Northeast 449 517 33,000  Level Atlanta Center
Thu 08:05:08 PM 32.9167 -85.1500 38° Northeast 438 504 33,000  Level Atlanta Center
Thu 08:06:08 PM 33.0156 -85.0569 38° Northeast 444 511 33,000  Level Atlanta Center
Thu 08:07:08 PM 33.1083 -84.9589 42° Northeast 444 511 33,000  Level Atlanta Center
Thu 08:08:08 PM 33.2133 -84.8533 40° Northeast 449 517 33,000  Level Atlanta Center
Thu 08:09:08 PM 33.3122 -84.7572 39° Northeast 449 517 33,000  Level Atlanta Center
Thu 08:10:08 PM 33.4086 -84.6608 40° Northeast 449 517 33,000  Level Atlanta Center
Thu 08:11:08 PM 33.5031 -84.5619 41° Northeast 449 517 33,000  Level Atlanta Center
Thu 08:12:08 PM 33.5994 -84.4628 41° Northeast 454 522 33,000  Level Atlanta Center
Thu 08:13:08 PM 33.6583 -84.3258 63° Northeast 439 505 33,000  Level Atlanta Center
Thu 08:14:08 PM 33.7022 -84.1761 71° East 447 514 33,000  Level Atlanta Center
Thu 08:15:08 PM 33.7419 -84.0264 72° East 468 539 33,000  Level Atlanta Center
Thu 08:16:08 PM 33.7836 -83.8814 71° East 462 532 33,000  Level Atlanta Center
Thu 08:17:08 PM 33.8253 -83.7311 72° East 462 532 33,000 -350 Level Atlanta Center
Thu 08:18:08 PM 33.8644 -83.5861 72° East 462 532 32,300 -900 Descending Atlanta Center
Thu 08:19:08 PM 33.9075 -83.4406 70° East 462 532 31,200 -1,100 Descending Atlanta Center
Thu 08:20:08 PM 33.9464 -83.2975 72° East 456 525 30,100 -1,050 Descending Atlanta Center
Thu 08:21:08 PM 33.9853 -83.1544 72° East 450 518 29,100 -1,000 Descending Atlanta Center
Thu 08:22:08 PM 34.0217 -83.0211 72° East 425 489 28,100 -900 Descending Atlanta Center
Thu 08:23:08 PM 34.0561 -82.9006 71° East 420 483 27,300 -900 Descending Atlanta Center
Thu 08:24:08 PM 34.0883 -82.7697 73° East 408 470 26,300 -1,000 Descending Atlanta Center
Thu 08:25:08 PM 34.1264 -82.6386 71° East 408 470 25,300 -1,050 Descending Atlanta Center
Thu 08:26:08 PM 34.1625 -82.5000 72° East 400 460 24,200 -650 Descending Atlanta Center
Thu 08:27:08 PM 34.1961 -82.3686 73° East 400 460 24,000 -150 Descending Atlanta Center
Thu 08:28:08 PM 34.2297 -82.2372 73° East 400 460 23,900 -550 Descending Atlanta Center
Thu 08:29:08 PM 34.2800 -82.1131 64° Northeast 405 466 22,900 -1,000 Descending Atlanta Center
Thu 08:30:08 PM 34.3558 -82.0183 46° Northeast 400 460 21,900 -1,150 Descending Atlanta Center
Thu 08:31:08 PM 34.4314 -81.9258 45° Northeast 389 448 20,600 -4,950 Descending Atlanta Center
Thu 08:32:08 PM 34.5028 -81.8333 47° Northeast 378 435 12,000 -1,900 Descending Atlanta Center
Thu 08:33:08 PM 34.5744 -81.7481 44° Northeast 372 428 16,800 1,450 Climbing Atlanta Center
Thu 08:34:08 PM 34.6311 -81.6683 49° Northeast 355 409 14,900 -2,143 Descending Atlanta Center
Thu 08:34:32 PM 34.6700 -81.6269 41° Northeast 347 399 13,800 -2,000 Descending Atlanta Center
Thu 08:35:08 PM 34.7006 -81.5856 48° Northeast 346 398 12,900 -1,770 Descending Atlanta Center
Thu 08:35:33 PM 34.7353 -81.5417 46° Northeast 341 392 12,000 -900 Descending Atlanta Center
Thu 08:36:08 PM 34.7636 -81.5028 48° Northeast 339 390 12,000  Level Atlanta Center
Thu 08:36:34 PM 34.8003 -81.4561 46° Northeast 345 397 12,000  Level Atlanta Center
Thu 08:37:08 PM 34.8389 -81.4094 45° Northeast 334 384 12,000 -295 Level Atlanta Center
Thu 08:37:35 PM 34.8672 -81.3681 50° Northeast 348 400 11,700 -1,600 Descending Atlanta Center
Thu 08:38:08 PM 34.9058 -81.3236 43° Northeast 334 384 10,400 -1,574 Descending Atlanta Center
Thu 08:38:36 PM 34.9342 -81.2847 48° Northeast 348 400 10,100 -400 Descending Atlanta Center
Thu 08:39:08 PM 34.9686 -81.2406 46° Northeast 334 384 10,000 -98 Descending Atlanta Center
Thu 08:39:37 PM 35.0072 -81.1936 45° Northeast 345 397 10,000 -100 Level Atlanta Center
Thu 08:40:08 PM 35.0356 -81.1544 49° Northeast 334 384 9,900 -885 Descending Atlanta Center
Thu 08:40:38 PM 35.0658 -81.1181 45° Northeast 315 362 9,100 -900 Descending Atlanta Center
Thu 08:41:08 PM 35.0986 -81.0914 34° Northeast 314 361 9,000 -98 Descending Atlanta Center
Thu 08:41:39 PM 35.1400 -81.0722 21° North 291 335 9,000  Level Atlanta Center
Thu 08:42:08 PM 35.1753 -81.0608 15° North 288 331 9,000 -484 Level Atlanta Center
Thu 08:42:41 PM 35.2122 -81.0442 20° North 253 291 8,500 -1,300 Descending Atlanta Center
Thu 08:43:08 PM 35.2411 -81.0253 28° Northeast 265 305 7,700 -1,475 Descending Atlanta Center
Thu 08:43:42 PM 35.2694 -80.9911 45° Northeast 249 287 7,000 -1,200 Descending Atlanta Center
Thu 08:44:43 PM 35.3161 -80.9361 44° Northeast 230 265 5,800 -984 Descending Atlanta Center
Thu 08:45:44 PM 35.3625 -80.8783 45° Northeast 224 258 5,000 -393 Descending Atlanta Center
Thu 08:46:45 PM 35.4025 -80.8156 52° Northeast 227 261 5,000 -246 Level Atlanta Center
Thu 08:47:46 PM 35.4133 -80.7464 79° East 223 257 4,500 -492 Descending Atlanta Center
Thu 08:48:47 PM 35.3656 -80.7533 187° South 182 209 4,000 -344 Descending Atlanta Center
Thu 08:49:48 PM 35.3247 -80.7906 217° Southwest 171 197 3,800 -197 Descending Atlanta Center

Login

Don't have an account? Register now (free) for customized features, flight alerts, and more!